Time;durP1;ratioP1;P1;durP2;ratioP2;P2;SDS_P1;SDS_P2;PMS_P1;PMS_P2;Temp;Humidity;BMP_temperature;BMP_pressure;BME280_temperature;BME280_humidity;BME280_pressure;Samples;Min_cycle;Max_cycle;Signal;HPM_P1;HPM_P2
2020/12/14 00:02:17;;;;;;;5.10;2.90;;;;;;;;;;5010874;28;20203;-54
2020/12/14 00:04:43;;;;;;;5.32;3.00;;;;;;;;;;5011096;28;20867;-53
2020/12/14 00:07:09;;;;;;;5.72;2.78;;;;;;;;;;5011022;28;20193;-53
2020/12/14 00:09:35;;;;;;;6.50;3.07;;;;;;;;;;5011373;28;20196;-53
2020/12/14 00:12:02;;;;;;;2.88;2.65;;;;;;;;;;5011187;28;20408;-53
2020/12/14 00:14:28;;;;;;;6.45;2.63;;;;;;;;;;5010633;28;20197;-53
2020/12/14 00:16:54;;;;;;;4.18;2.60;;;;;;;;;;5011454;28;20177;-52
2020/12/14 00:19:20;;;;;;;3.55;2.20;;;;;;;;;;5011557;28;20232;-55
2020/12/14 00:21:46;;;;;;;5.07;2.60;;;;;;;;;;5011751;28;20243;-54
2020/12/14 00:24:12;;;;;;;5.60;2.93;;;;;;;;;;5010797;28;20664;-52
2020/12/14 00:26:38;;;;;;;2.97;2.20;;;;;;;;;;5011610;28;20400;-52
2020/12/14 00:29:04;;;;;;;5.43;2.83;;;;;;;;;;5011258;28;20395;-52
2020/12/14 00:31:30;;;;;;;4.67;2.70;;;;;;;;;;5011312;28;20908;-52
2020/12/14 00:33:56;;;;;;;4.40;2.90;;;;;;;;;;5010355;28;20427;-52
2020/12/14 00:36:22;;;;;;;2.53;2.30;;;;;;;;;;5011239;28;20430;-52
2020/12/14 00:38:48;;;;;;;4.60;2.70;;;;;;;;;;5011025;28;20401;-52
2020/12/14 00:41:18;;;;;;;7.90;3.43;;;;;;;;;;5011260;28;20404;-52
2020/12/14 00:43:44;;;;;;;5.63;3.10;;;;;;;;;;5009811;28;20407;-53
2020/12/14 00:46:13;;;;;;;5.40;3.40;;;;;;;;;;5010911;28;20205;-52
2020/12/14 00:48:39;;;;;;;4.15;2.50;;;;;;;;;;5010946;28;20246;-52
2020/12/14 00:51:05;;;;;;;4.53;2.30;;;;;;;;;;5009895;28;20176;-52
2020/12/14 00:53:32;;;;;;;6.50;2.80;;;;;;;;;;5010495;28;20410;-52
2020/12/14 00:56:00;;;;;;;2.88;2.67;;;;;;;;;;5011272;28;20463;-52
2020/12/14 00:58:26;;;;;;;4.95;2.78;;;;;;;;;;5011225;28;20211;-53
2020/12/14 01:00:52;;;;;;;3.47;2.40;;;;;;;;;;5011224;28;20263;-53
2020/12/14 01:03:18;;;;;;;3.90;2.40;;;;;;;;;;5010656;28;20401;-52
2020/12/14 01:05:44;;;;;;;3.07;2.37;;;;;;;;;;5010813;28;20272;-53
2020/12/14 01:08:10;;;;;;;6.30;2.50;;;;;;;;;;5010783;28;20471;-53
2020/12/14 01:10:36;;;;;;;3.17;2.37;;;;;;;;;;5010648;28;20405;-53
2020/12/14 01:13:02;;;;;;;3.10;2.37;;;;;;;;;;5010363;28;20478;-53
2020/12/14 01:15:28;;;;;;;2.90;2.03;;;;;;;;;;5009914;28;21009;-53
2020/12/14 01:17:54;;;;;;;1.93;1.80;;;;;;;;;;5012013;28;20793;-52
2020/12/14 01:20:20;;;;;;;5.80;2.80;;;;;;;;;;5014563;28;20404;-52
2020/12/14 01:22:46;;;;;;;9.70;2.40;;;;;;;;;;5014296;28;20415;-51
2020/12/14 01:25:12;;;;;;;2.77;2.57;;;;;;;;;;5014749;28;20435;-52
2020/12/14 01:27:38;;;;;;;2.40;2.20;;;;;;;;;;5014544;28;20546;-52
2020/12/14 01:30:04;;;;;;;6.70;2.67;;;;;;;;;;5014587;28;20395;-52
2020/12/14 01:32:30;;;;;;;4.10;2.45;;;;;;;;;;5013924;28;20408;-52
2020/12/14 01:34:56;;;;;;;2.25;2.00;;;;;;;;;;5014371;28;20211;-53
2020/12/14 01:37:22;;;;;;;2.90;2.33;;;;;;;;;;5014384;28;20256;-52
2020/12/14 01:39:48;;;;;;;4.63;2.50;;;;;;;;;;5014494;28;20404;-52
2020/12/14 01:42:14;;;;;;;5.63;2.70;;;;;;;;;;5013667;28;20508;-52
2020/12/14 01:44:40;;;;;;;7.33;2.67;;;;;;;;;;5013527;28;20430;-53
2020/12/14 01:47:06;;;;;;;6.17;2.20;;;;;;;;;;5014174;28;20786;-52
2020/12/14 01:49:32;;;;;;;2.23;2.03;;;;;;;;;;5014274;28;20506;-52
2020/12/14 01:51:58;;;;;;;3.90;2.27;;;;;;;;;;5013810;28;20908;-52
2020/12/14 01:54:24;;;;;;;7.03;2.80;;;;;;;;;;5013962;28;20419;-52
2020/12/14 01:56:50;;;;;;;7.07;2.73;;;;;;;;;;5014178;28;20467;-52
2020/12/14 01:59:16;;;;;;;5.10;2.00;;;;;;;;;;5013908;28;20885;-52
2020/12/14 02:01:42;;;;;;;4.73;1.60;;;;;;;;;;5013392;28;20167;-52
2020/12/14 02:04:08;;;;;;;2.50;2.30;;;;;;;;;;5012801;28;20399;-52
2020/12/14 02:06:34;;;;;;;3.30;2.30;;;;;;;;;;5013587;28;20802;-52
2020/12/14 02:09:00;;;;;;;6.60;2.63;;;;;;;;;;5013643;28;20455;-53
2020/12/14 02:11:26;;;;;;;2.93;1.87;;;;;;;;;;5013869;28;20411;-54
2020/12/14 02:13:52;;;;;;;2.57;2.37;;;;;;;;;;5028260;28;20936;-52
2020/12/14 02:16:17;;;;;;;5.83;2.20;;;;;;;;;;5012882;28;20451;-53
2020/12/14 02:18:43;;;;;;;6.67;2.70;;;;;;;;;;5013448;28;20408;-53
2020/12/14 02:21:09;;;;;;;4.27;2.27;;;;;;;;;;5013782;28;20401;-53
2020/12/14 02:23:36;;;;;;;3.57;2.00;;;;;;;;;;5013145;28;20466;-53
2020/12/14 02:26:02;;;;;;;2.80;2.05;;;;;;;;;;5013495;28;21016;-54
2020/12/14 02:28:28;;;;;;;2.97;2.30;;;;;;;;;;5013391;28;20279;-53
2020/12/14 02:30:54;;;;;;;3.57;1.80;;;;;;;;;;5013485;28;20991;-53
2020/12/14 02:33:20;;;;;;;5.03;1.80;;;;;;;;;;5012847;28;20393;-51
2020/12/14 02:35:46;;;;;;;3.57;2.47;;;;;;;;;;5013103;28;20435;-52
2020/12/14 02:38:12;;;;;;;3.70;1.80;;;;;;;;;;5013370;28;20496;-53
2020/12/14 02:40:38;;;;;;;5.95;1.77;;;;;;;;;;5013228;28;20172;-53
2020/12/14 02:43:04;;;;;;;2.80;2.37;;;;;;;;;;5012976;28;20180;-52
2020/12/14 02:45:30;;;;;;;3.73;2.10;;;;;;;;;;5013308;28;21174;-52
2020/12/14 02:47:56;;;;;;;4.17;3.03;;;;;;;;;;5012710;28;20984;-52
2020/12/14 02:50:22;;;;;;;3.70;2.00;;;;;;;;;;5013541;28;20772;-52
2020/12/14 02:52:48;;;;;;;6.10;2.60;;;;;;;;;;5012768;28;20485;-52
2020/12/14 02:55:14;;;;;;;2.83;1.80;;;;;;;;;;5013294;28;20427;-52
2020/12/14 02:57:40;;;;;;;3.20;2.33;;;;;;;;;;5013111;28;20406;-52
2020/12/14 03:00:07;;;;;;;6.60;2.07;;;;;;;;;;5013120;28;20896;-52
2020/12/14 03:02:32;;;;;;;2.70;2.10;;;;;;;;;;5012328;28;21116;-52
2020/12/14 03:04:58;;;;;;;2.07;1.87;;;;;;;;;;5012895;28;20522;-52
2020/12/14 03:07:24;;;;;;;4.00;2.20;;;;;;;;;;5012840;28;20452;-52
2020/12/14 03:09:50;;;;;;;5.00;2.10;;;;;;;;;;5012746;28;20915;-52
2020/12/14 03:12:16;;;;;;;3.53;2.17;;;;;;;;;;5012072;28;20409;-52
2020/12/14 03:14:42;;;;;;;2.30;2.10;;;;;;;;;;5012704;28;20917;-52
2020/12/14 03:17:08;;;;;;;6.23;1.97;;;;;;;;;;5011678;28;20833;-52
2020/12/14 03:19:35;;;;;;;2.57;2.23;;;;;;;;;;5000116;28;20520;-52
2020/12/14 03:22:01;;;;;;;3.58;1.80;;;;;;;;;;4992580;28;20408;-52
2020/12/14 03:24:27;;;;;;;2.00;1.90;;;;;;;;;;4992676;28;20198;-52
2020/12/14 03:26:52;;;;;;;3.17;2.20;;;;;;;;;;4992877;28;20544;-52
2020/12/14 03:29:18;;;;;;;5.57;1.73;;;;;;;;;;4992663;28;20411;-52
2020/12/14 03:31:45;;;;;;;2.60;2.10;;;;;;;;;;4992843;28;20409;-52
2020/12/14 03:34:11;;;;;;;2.75;2.08;;;;;;;;;;4992097;28;20222;-52
2020/12/14 03:36:36;;;;;;;3.60;2.13;;;;;;;;;;4992852;28;20197;-52
2020/12/14 03:39:03;;;;;;;6.87;2.33;;;;;;;;;;4992478;28;20967;-54
2020/12/14 03:41:29;;;;;;;3.73;2.10;;;;;;;;;;4992205;28;20802;-52
2020/12/14 03:43:55;;;;;;;7.33;2.20;;;;;;;;;;4991815;28;20411;-52
2020/12/14 03:46:23;;;;;;;5.93;2.23;;;;;;;;;;5000118;28;20457;-52
2020/12/14 03:48:49;;;;;;;3.10;2.10;;;;;;;;;;5012109;28;20610;-53
2020/12/14 03:51:15;;;;;;;4.57;2.13;;;;;;;;;;5011946;28;20223;-52
2020/12/14 03:53:41;;;;;;;2.00;1.80;;;;;;;;;;5011481;28;20405;-53
2020/12/14 03:56:07;;;;;;;3.97;2.27;;;;;;;;;;5011514;28;20453;-54
2020/12/14 03:58:33;;;;;;;3.50;1.80;;;;;;;;;;5010802;28;20955;-52
2020/12/14 04:00:59;;;;;;;3.47;1.87;;;;;;;;;;5011789;28;20405;-52
2020/12/14 04:03:26;;;;;;;1.87;1.77;;;;;;;;;;5011242;28;20456;-52
2020/12/14 04:05:52;;;;;;;5.30;1.90;;;;;;;;;;5011671;28;20435;-53
2020/12/14 04:08:18;;;;;;;2.00;1.80;;;;;;;;;;5011816;28;20455;-52
2020/12/14 04:10:44;;;;;;;3.20;2.10;;;;;;;;;;5011470;28;20809;-53
2020/12/14 04:13:10;;;;;;;4.00;2.20;;;;;;;;;;5010987;28;20492;-52
2020/12/14 04:15:36;;;;;;;4.40;2.30;;;;;;;;;;5011395;28;20478;-53
2020/12/14 04:18:03;;;;;;;3.33;1.90;;;;;;;;;;5010845;28;20818;-54
2020/12/14 04:20:29;;;;;;;4.90;2.00;;;;;;;;;;5011554;28;20408;-53
2020/12/14 04:22:55;;;;;;;7.43;2.10;;;;;;;;;;5010753;28;20776;-54
2020/12/14 04:25:20;;;;;;;6.90;2.30;;;;;;;;;;5011413;28;20424;-53
2020/12/14 04:27:47;;;;;;;3.07;2.00;;;;;;;;;;5011078;28;20458;-54
2020/12/14 04:30:13;;;;;;;4.23;2.27;;;;;;;;;;5011373;28;20792;-55
2020/12/14 04:32:39;;;;;;;3.63;2.20;;;;;;;;;;5010718;28;20771;-53
2020/12/14 04:35:06;;;;;;;5.10;2.70;;;;;;;;;;5011254;28;20210;-53
2020/12/14 04:37:32;;;;;;;3.90;2.33;;;;;;;;;;5011204;28;20413;-53
2020/12/14 04:39:58;;;;;;;3.93;2.20;;;;;;;;;;5011255;28;20500;-52
2020/12/14 04:42:24;;;;;;;7.07;3.00;;;;;;;;;;5010507;28;20548;-52
2020/12/14 04:44:54;;;;;;;3.50;2.57;;;;;;;;;;5011510;28;20433;-52
2020/12/14 04:47:22;;;;;;;1.90;1.80;;;;;;;;;;5010494;28;20464;-53
2020/12/14 04:49:49;;;;;;;3.43;2.10;;;;;;;;;;5011322;28;20833;-52
2020/12/14 04:52:17;;;;;;;4.70;3.00;;;;;;;;;;5009820;28;20409;-52
2020/12/14 04:54:48;;;;;;;2.57;2.37;;;;;;;;;;5011025;28;20429;-52
2020/12/14 04:57:14;;;;;;;4.87;2.23;;;;;;;;;;5010434;28;20904;-54
2020/12/14 04:59:40;;;;;;;3.53;2.00;;;;;;;;;;5010689;28;20425;-52
2020/12/14 05:02:07;;;;;;;4.63;2.33;;;;;;;;;;5010378;28;20399;-52
2020/12/14 05:04:33;;;;;;;2.03;1.93;;;;;;;;;;5010836;28;20425;-52
2020/12/14 05:06:59;;;;;;;4.73;1.77;;;;;;;;;;5010937;28;20404;-52
2020/12/14 05:09:25;;;;;;;4.20;1.83;;;;;;;;;;5010753;28;20402;-52
2020/12/14 05:11:51;;;;;;;3.90;1.73;;;;;;;;;;5010867;28;20889;-52
2020/12/14 05:14:18;;;;;;;4.17;2.10;;;;;;;;;;5010357;28;20413;-52
2020/12/14 05:16:44;;;;;;;4.50;2.17;;;;;;;;;;5010385;28;20515;-53
2020/12/14 05:19:19;;;;;;;2.60;2.27;;;;;;;;;;5010577;28;20503;-53
2020/12/14 05:21:46;;;;;;;5.83;2.07;;;;;;;;;;5010762;28;20405;-53
2020/12/14 05:24:17;;;;;;;2.77;2.43;;;;;;;;;;5010101;28;20464;-52
2020/12/14 05:26:44;;;;;;;1.93;1.73;;;;;;;;;;5010638;28;20397;-52
2020/12/14 05:29:15;;;;;;;5.27;2.17;;;;;;;;;;5010554;28;20510;-53
2020/12/14 05:31:41;;;;;;;2.10;1.90;;;;;;;;;;5010607;28;20766;-53
2020/12/14 05:34:12;;;;;;;2.30;2.10;;;;;;;;;;5009969;28;20417;-53
2020/12/14 05:36:38;;;;;;;3.63;2.50;;;;;;;;;;5010606;28;21032;-52
2020/12/14 05:39:04;;;;;;;4.73;1.97;;;;;;;;;;5010624;28;20440;-53
2020/12/14 05:41:30;;;;;;;4.27;2.80;;;;;;;;;;5010492;28;20413;-53
2020/12/14 05:43:56;;;;;;;4.70;2.00;;;;;;;;;;5010061;28;20776;-53
2020/12/14 05:46:22;;;;;;;3.38;2.35;;;;;;;;;;5010293;28;20434;-53
2020/12/14 05:48:49;;;;;;;4.47;2.50;;;;;;;;;;5009882;28;20225;-53
2020/12/14 05:51:14;;;;;;;4.07;2.07;;;;;;;;;;5010328;28;20408;-52
2020/12/14 05:53:42;;;;;;;2.70;2.27;;;;;;;;;;5009940;28;20415;-52
2020/12/14 05:56:08;;;;;;;3.87;2.07;;;;;;;;;;5010388;28;20422;-52
2020/12/14 05:58:35;;;;;;;2.30;2.20;;;;;;;;;;5010148;28;20899;-52
2020/12/14 06:01:02;;;;;;;5.87;2.50;;;;;;;;;;5010438;28;20436;-52
2020/12/14 06:03:28;;;;;;;2.57;2.37;;;;;;;;;;5010215;28;20465;-51
2020/12/14 06:05:58;;;;;;;4.40;2.10;;;;;;;;;;5014161;28;20435;-53
2020/12/14 06:08:27;;;;;;;2.17;2.07;;;;;;;;;;5013992;28;20482;-54
2020/12/14 06:10:58;;;;;;;2.80;2.20;;;;;;;;;;5013950;28;20481;-54
2020/12/14 06:13:29;;;;;;;3.53;2.73;;;;;;;;;;5013333;28;20439;-52
2020/12/14 06:16:00;;;;;;;3.00;2.17;;;;;;;;;;5013934;28;20425;-53
2020/12/14 06:18:28;;;;;;;2.43;2.23;;;;;;;;;;5011165;28;20434;-53
2020/12/14 06:20:54;;;;;;;3.77;2.30;;;;;;;;;;5014329;28;20406;-52
2020/12/14 06:23:21;;;;;;;2.17;2.03;;;;;;;;;;5013081;28;20413;-52
2020/12/14 06:25:47;;;;;;;3.60;2.60;;;;;;;;;;5013674;28;20430;-52
2020/12/14 06:28:32;;;;;;;2.53;2.30;;;;;;;;;;5012875;28;20560;-53
2020/12/14 06:30:58;;;;;;;3.47;1.73;;;;;;;;;;5013822;28;20402;-52
2020/12/14 06:33:38;;;;;;;4.77;1.87;;;;;;;;;;5012910;28;20485;-54
2020/12/14 06:36:19;;;;;;;3.70;2.07;;;;;;;;;;5013426;28;20855;-54
2020/12/14 06:38:46;;;;;;;4.20;2.40;;;;;;;;;;5013192;28;20529;-52
2020/12/14 06:41:13;;;;;;;1.80;1.70;;;;;;;;;;5013542;28;20408;-53
2020/12/14 06:43:39;;;;;;;2.97;2.30;;;;;;;;;;5012979;28;20404;-52
2020/12/14 06:46:05;;;;;;;2.67;2.40;;;;;;;;;;5013412;28;20453;-53
2020/12/14 06:52:01;;;;;;;3.00;1.60;;;;;;;;;;5010788;28;20373;-52
2020/12/14 06:54:42;;;;;;;7.33;2.73;;;;;;;;;;5011764;28;20421;-53
2020/12/14 06:57:09;;;;;;;2.20;1.80;;;;;;;;;;5012492;28;21113;-54
2020/12/14 06:59:35;;;;;;;2.30;2.07;;;;;;;;;;4993354;28;20410;-52
2020/12/14 07:02:03;;;;;;;3.67;2.30;;;;;;;;;;4993264;28;20425;-53
2020/12/14 07:04:28;;;;;;;2.70;2.07;;;;;;;;;;4993352;28;20434;-52
2020/12/14 07:06:58;;;;;;;4.70;2.00;;;;;;;;;;5004451;28;20437;-53
2020/12/14 07:09:31;;;;;;;3.00;2.10;;;;;;;;;;5012786;28;20785;-52
2020/12/14 07:12:09;;;;;;;2.33;2.23;;;;;;;;;;5012391;28;20410;-52
2020/12/14 07:14:36;;;;;;;5.30;2.90;;;;;;;;;;5012345;28;20422;-53
2020/12/14 07:17:08;;;;;;;2.73;2.20;;;;;;;;;;5018123;28;20457;-54
2020/12/14 07:19:36;;;;;;;1.90;1.80;;;;;;;;;;5014295;28;20399;-52
2020/12/14 07:22:02;;;;;;;3.57;2.20;;;;;;;;;;5013070;28;20419;-54
2020/12/14 07:24:35;;;;;;;2.83;2.27;;;;;;;;;;5016902;28;20453;-55
2020/12/14 07:27:01;;;;;;;9.03;2.60;;;;;;;;;;5010980;28;20405;-54
2020/12/14 07:29:27;;;;;;;3.23;2.23;;;;;;;;;;5009788;28;20434;-53
2020/12/14 07:31:54;;;;;;;2.70;2.27;;;;;;;;;;5011659;28;20405;-53
2020/12/14 07:34:20;;;;;;;2.20;2.10;;;;;;;;;;5011393;28;20442;-54
2020/12/14 07:36:46;;;;;;;4.20;2.07;;;;;;;;;;5012410;28;20920;-54
2020/12/14 07:39:12;;;;;;;2.77;2.47;;;;;;;;;;5011935;28;20410;-54
2020/12/14 07:41:45;;;;;;;2.40;2.20;;;;;;;;;;5012327;28;20413;-54
2020/12/14 07:44:11;;;;;;;5.10;3.03;;;;;;;;;;5011493;28;21095;-54
2020/12/14 07:46:37;;;;;;;4.57;3.00;;;;;;;;;;5012436;28;20406;-55
2020/12/14 07:49:10;;;;;;;2.70;2.33;;;;;;;;;;5012065;28;20453;-54
2020/12/14 07:51:38;;;;;;;5.13;2.30;;;;;;;;;;5012224;28;20412;-54
2020/12/14 07:54:09;;;;;;;3.07;2.30;;;;;;;;;;5011348;28;20398;-54
2020/12/14 07:56:58;;;;;;;2.00;1.90;;;;;;;;;;5012059;28;20411;-54
2020/12/14 07:59:26;;;;;;;2.17;2.07;;;;;;;;;;5010976;28;20438;-55
2020/12/14 08:01:52;;;;;;;3.23;2.30;;;;;;;;;;5011940;28;20914;-54
2020/12/14 08:04:24;;;;;;;3.80;2.07;;;;;;;;;;5011277;28;20402;-55
2020/12/14 08:06:51;;;;;;;3.00;2.30;;;;;;;;;;5011799;28;20405;-54
2020/12/14 08:09:21;;;;;;;2.80;2.20;;;;;;;;;;5011525;28;20828;-54
2020/12/14 08:11:47;;;;;;;2.47;2.27;;;;;;;;;;5011580;28;20407;-54
2020/12/14 08:14:17;;;;;;;6.20;2.33;;;;;;;;;;5011020;28;20950;-54
2020/12/14 08:16:44;;;;;;;2.70;2.10;;;;;;;;;;5011675;28;20407;-54
2020/12/14 08:19:17;;;;;;;3.37;2.37;;;;;;;;;;5011636;28;20497;-54
2020/12/14 08:21:59;;;;;;;7.37;2.97;;;;;;;;;;5011235;28;20408;-54
2020/12/14 08:24:25;;;;;;;3.40;3.10;;;;;;;;;;5011274;28;20426;-55
2020/12/14 08:26:56;;;;;;;11.20;3.27;;;;;;;;;;5011239;28;20428;-53
2020/12/14 08:29:22;;;;;;;3.00;2.60;;;;;;;;;;5010496;28;20952;-53
2020/12/14 08:31:48;;;;;;;11.07;3.20;;;;;;;;;;5011534;28;20719;-53
2020/12/14 08:34:14;;;;;;;5.07;2.83;;;;;;;;;;5010447;28;20498;-54
2020/12/14 08:36:41;;;;;;;3.27;2.97;;;;;;;;;;5008528;28;20528;-54
2020/12/14 08:39:13;;;;;;;5.23;3.23;;;;;;;;;;5010825;28;20492;-53
2020/12/14 08:41:39;;;;;;;3.83;3.43;;;;;;;;;;5011120;28;20398;-53
2020/12/14 08:44:05;;;;;;;9.70;3.50;;;;;;;;;;5010544;28;20457;-53
2020/12/14 08:46:30;;;;;;;3.07;2.87;;;;;;;;;;5011043;28;20419;-52
2020/12/14 08:48:57;;;;;;;3.20;2.87;;;;;;;;;;5010862;28;20457;-52
2020/12/14 08:51:25;;;;;;;3.13;2.93;;;;;;;;;;5011190;28;20405;-53
2020/12/14 08:53:52;;;;;;;6.60;3.53;;;;;;;;;;5010310;28;20398;-52
2020/12/14 08:56:20;;;;;;;4.93;4.03;;;;;;;;;;5010901;28;20422;-52
2020/12/14 08:58:59;;;;;;;4.07;3.40;;;;;;;;;;5009932;28;20436;-52
2020/12/14 09:01:26;;;;;;;6.10;3.27;;;;;;;;;;5010824;28;20961;-51
2020/12/14 09:03:53;;;;;;;4.43;4.03;;;;;;;;;;5010120;28;20476;-52
2020/12/14 09:06:20;;;;;;;6.80;3.70;;;;;;;;;;5010953;28;20434;-52
2020/12/14 09:08:59;;;;;;;3.83;3.30;;;;;;;;;;5010607;28;20457;-52
2020/12/14 09:11:28;;;;;;;2.87;2.67;;;;;;;;;;5010964;28;20417;-53
2020/12/14 09:13:54;;;;;;;7.10;3.27;;;;;;;;;;5009898;28;21261;-53
2020/12/14 09:16:20;;;;;;;2.97;2.73;;;;;;;;;;5010824;28;21012;-53
2020/12/14 09:18:46;;;;;;;3.50;2.70;;;;;;;;;;5010763;28;20493;-54
2020/12/14 09:21:13;;;;;;;6.00;3.10;;;;;;;;;;5010703;28;20909;-53
2020/12/14 09:23:39;;;;;;;3.33;2.80;;;;;;;;;;5010241;28;20433;-53
2020/12/14 09:26:05;;;;;;;2.87;2.60;;;;;;;;;;5009277;28;20441;-53
2020/12/14 09:28:34;;;;;;;5.93;2.93;;;;;;;;;;5010569;28;20496;-54
2020/12/14 09:31:00;;;;;;;3.67;3.00;;;;;;;;;;5010098;28;20452;-53
2020/12/14 09:33:26;;;;;;;4.23;2.90;;;;;;;;;;5010060;28;20398;-52
2020/12/14 09:35:52;;;;;;;3.90;3.57;;;;;;;;;;5010426;28;20988;-54
2020/12/14 09:38:18;;;;;;;4.33;3.30;;;;;;;;;;5010866;28;20406;-53
2020/12/14 09:40:44;;;;;;;4.50;3.30;;;;;;;;;;5014617;28;20439;-54
2020/12/14 09:43:10;;;;;;;6.97;2.93;;;;;;;;;;5014101;28;20492;-54
2020/12/14 09:45:36;;;;;;;3.17;2.97;;;;;;;;;;5014517;28;20430;-54
2020/12/14 09:48:02;;;;;;;3.00;2.63;;;;;;;;;;5014299;28;20973;-53
2020/12/14 09:50:28;;;;;;;3.70;2.60;;;;;;;;;;5014101;28;20428;-53
2020/12/14 09:52:54;;;;;;;4.47;3.03;;;;;;;;;;5013442;28;20766;-54
2020/12/14 09:55:20;;;;;;;3.80;2.80;;;;;;;;;;5014176;28;20426;-54
2020/12/14 09:57:49;;;;;;;3.10;2.87;;;;;;;;;;5015264;28;20501;-53
2020/12/14 10:00:15;;;;;;;3.20;2.63;;;;;;;;;;5014790;28;20443;-53
2020/12/14 10:02:41;;;;;;;3.17;2.87;;;;;;;;;;5014882;28;20444;-54
2020/12/14 10:05:07;;;;;;;4.10;2.60;;;;;;;;;;5012901;28;20441;-54
2020/12/14 10:07:33;;;;;;;2.73;2.53;;;;;;;;;;5013725;28;20945;-54
2020/12/14 10:09:59;;;;;;;2.83;2.53;;;;;;;;;;5012360;28;20962;-54
2020/12/14 10:12:28;;;;;;;3.00;2.70;;;;;;;;;;5013595;28;20444;-52
2020/12/14 10:14:56;;;;;;;2.80;2.60;;;;;;;;;;5014124;28;20462;-53
2020/12/14 10:17:22;;;;;;;2.53;2.33;;;;;;;;;;5014025;28;20465;-52
2020/12/14 10:19:48;;;;;;;3.40;2.60;;;;;;;;;;5013612;28;20899;-53
2020/12/14 10:22:14;;;;;;;8.60;2.60;;;;;;;;;;5013159;28;20422;-52
2020/12/14 10:24:40;;;;;;;3.53;2.97;;;;;;;;;;5013465;28;20430;-52
2020/12/14 10:27:06;;;;;;;2.93;2.73;;;;;;;;;;5013594;28;20413;-53
2020/12/14 10:29:32;;;;;;;3.37;2.87;;;;;;;;;;5012834;28;20434;-54
2020/12/14 10:31:58;;;;;;;3.20;3.00;;;;;;;;;;5015326;28;20396;-52
2020/12/14 10:34:24;;;;;;;3.27;2.97;;;;;;;;;;5013347;28;20444;-53
2020/12/14 10:36:50;;;;;;;3.27;2.97;;;;;;;;;;5014037;28;20493;-52
2020/12/14 10:39:16;;;;;;;3.20;2.40;;;;;;;;;;5013300;28;20486;-52
2020/12/14 10:41:42;;;;;;;3.93;3.60;;;;;;;;;;5013342;28;20429;-54
2020/12/14 10:44:08;;;;;;;3.10;2.90;;;;;;;;;;5012854;28;20406;-53
2020/12/14 10:46:34;;;;;;;4.13;2.40;;;;;;;;;;5013169;28;20489;-53
2020/12/14 10:49:00;;;;;;;2.60;2.50;;;;;;;;;;5012926;28;20969;-53
2020/12/14 10:51:26;;;;;;;5.30;3.33;;;;;;;;;;5011903;28;20406;-53
2020/12/14 10:53:52;;;;;;;4.40;2.90;;;;;;;;;;5012296;28;20430;-53
2020/12/14 10:56:18;;;;;;;4.73;2.80;;;;;;;;;;5013015;28;20464;-54
2020/12/14 10:58:44;;;;;;;3.47;2.40;;;;;;;;;;5010990;28;20414;-53
2020/12/14 11:01:10;;;;;;;2.90;2.70;;;;;;;;;;5012947;28;20407;-54
2020/12/14 11:03:36;;;;;;;6.33;3.33;;;;;;;;;;5012536;28;20399;-54
2020/12/14 11:06:02;;;;;;;3.43;2.73;;;;;;;;;;5012665;28;20450;-54
2020/12/14 11:08:28;;;;;;;4.73;3.83;;;;;;;;;;5012592;28;20450;-54
2020/12/14 11:10:54;;;;;;;3.00;2.60;;;;;;;;;;5012543;28;20477;-54
2020/12/14 11:13:20;;;;;;;2.60;2.40;;;;;;;;;;5012240;28;20887;-54
2020/12/14 11:15:46;;;;;;;3.53;2.30;;;;;;;;;;5012532;28;20851;-54
2020/12/14 11:18:12;;;;;;;2.90;2.60;;;;;;;;;;5013204;28;20472;-53
2020/12/14 11:20:38;;;;;;;2.90;2.70;;;;;;;;;;5012667;28;20446;-52
2020/12/14 11:23:04;;;;;;;3.20;2.70;;;;;;;;;;5012049;28;21120;-51
2020/12/14 11:25:30;;;;;;;5.90;3.30;;;;;;;;;;5012932;28;20426;-52
2020/12/14 11:27:56;;;;;;;3.10;2.80;;;;;;;;;;5012603;28;20946;-52
2020/12/14 11:30:23;;;;;;;2.80;2.20;;;;;;;;;;5012199;28;20445;-52
2020/12/14 11:32:48;;;;;;;4.23;2.70;;;;;;;;;;5012155;28;20410;-53
2020/12/14 11:35:14;;;;;;;4.70;2.80;;;;;;;;;;5012593;28;20456;-55
2020/12/14 11:37:40;;;;;;;7.30;3.63;;;;;;;;;;5012469;28;20895;-53
2020/12/14 11:40:07;;;;;;;5.93;3.27;;;;;;;;;;5012174;28;20410;-51
2020/12/14 11:42:33;;;;;;;3.53;2.93;;;;;;;;;;5011725;28;20918;-54
2020/12/14 11:44:59;;;;;;;4.73;2.90;;;;;;;;;;5012027;28;20430;-54
2020/12/14 11:47:25;;;;;;;3.67;2.47;;;;;;;;;;5012008;28;20454;-52
2020/12/14 11:49:51;;;;;;;3.57;3.17;;;;;;;;;;5011855;28;20407;-52
2020/12/14 11:52:17;;;;;;;5.20;2.70;;;;;;;;;;5011392;28;20949;-52
2020/12/14 11:54:42;;;;;;;2.90;2.67;;;;;;;;;;5011984;28;20423;-52
2020/12/14 11:57:08;;;;;;;3.10;2.60;;;;;;;;;;5011815;28;20399;-52
2020/12/14 11:59:34;;;;;;;2.93;2.50;;;;;;;;;;5011158;28;20435;-52
2020/12/14 12:02:01;;;;;;;2.63;2.43;;;;;;;;;;5010953;28;20403;-52
2020/12/14 12:04:26;;;;;;;3.57;2.33;;;;;;;;;;5011538;28;20935;-52
2020/12/14 12:06:52;;;;;;;6.40;3.00;;;;;;;;;;5011427;28;20413;-52
2020/12/14 12:09:18;;;;;;;3.00;2.40;;;;;;;;;;5010342;28;20993;-52
2020/12/14 12:11:44;;;;;;;4.77;3.07;;;;;;;;;;5010232;28;20408;-53
2020/12/14 12:14:10;;;;;;;2.47;2.27;;;;;;;;;;5008023;28;20449;-53
2020/12/14 12:16:36;;;;;;;2.23;2.03;;;;;;;;;;5010930;28;20414;-54
2020/12/14 12:19:02;;;;;;;4.87;2.73;;;;;;;;;;5010823;28;20494;-54
2020/12/14 12:21:28;;;;;;;2.63;2.10;;;;;;;;;;5026640;28;20925;-53
2020/12/14 12:23:54;;;;;;;3.07;2.37;;;;;;;;;;5020125;28;20889;-54
2020/12/14 12:26:20;;;;;;;2.70;2.50;;;;;;;;;;5011310;28;20429;-54
2020/12/14 12:28:46;;;;;;;3.03;2.30;;;;;;;;;;5010855;28;20819;-55
2020/12/14 12:31:12;;;;;;;2.13;2.03;;;;;;;;;;5010842;28;20514;-55
2020/12/14 12:33:38;;;;;;;3.00;2.40;;;;;;;;;;5010795;28;20400;-54
2020/12/14 12:36:04;;;;;;;4.80;1.90;;;;;;;;;;5018797;28;20447;-53
2020/12/14 12:38:30;;;;;;;3.20;2.07;;;;;;;;;;5013782;28;20424;-54
2020/12/14 12:40:56;;;;;;;5.17;2.20;;;;;;;;;;5011767;28;20494;-55
2020/12/14 12:43:22;;;;;;;4.17;2.83;;;;;;;;;;5010141;28;20411;-54
2020/12/14 12:45:50;;;;;;;3.20;2.70;;;;;;;;;;5009232;28;20983;-55
2020/12/14 12:48:16;;;;;;;5.13;2.63;;;;;;;;;;5010797;28;20454;-54
2020/12/14 12:50:54;;;;;;;2.70;2.47;;;;;;;;;;5016440;28;21176;-54
2020/12/14 12:53:24;;;;;;;3.03;2.00;;;;;;;;;;5010950;28;20458;-54
2020/12/14 12:55:51;;;;;;;2.43;2.27;;;;;;;;;;5010869;28;20426;-54
2020/12/14 12:58:17;;;;;;;3.63;2.10;;;;;;;;;;5009944;28;20914;-53
2020/12/14 13:00:43;;;;;;;3.70;2.33;;;;;;;;;;5009907;28;20437;-54
2020/12/14 13:03:09;;;;;;;2.43;2.20;;;;;;;;;;5010456;28;20394;-54
2020/12/14 13:05:35;;;;;;;4.57;1.90;;;;;;;;;;5010940;28;20430;-54
2020/12/14 13:08:01;;;;;;;2.30;2.10;;;;;;;;;;5010883;28;20455;-54
2020/12/14 13:10:28;;;;;;;2.70;2.20;;;;;;;;;;5009605;28;20788;-54
2020/12/14 13:12:54;;;;;;;1.93;1.83;;;;;;;;;;5009815;28;20883;-54
2020/12/14 13:15:20;;;;;;;5.37;2.40;;;;;;;;;;5010394;28;20426;-54
2020/12/14 13:17:46;;;;;;;1.87;1.77;;;;;;;;;;5010776;28;20446;-54
2020/12/14 13:20:12;;;;;;;2.50;2.30;;;;;;;;;;5010779;28;20844;-55
2020/12/14 13:22:38;;;;;;;3.23;2.40;;;;;;;;;;5010414;28;20489;-54
2020/12/14 13:25:04;;;;;;;4.80;2.83;;;;;;;;;;5011323;28;20438;-55
2020/12/14 13:27:30;;;;;;;3.47;2.43;;;;;;;;;;5010937;28;21025;-55
2020/12/14 13:29:57;;;;;;;2.63;2.10;;;;;;;;;;5009779;28;20435;-55
2020/12/14 13:32:23;;;;;;;2.63;1.90;;;;;;;;;;5009898;28;20498;-55
2020/12/14 13:34:49;;;;;;;2.67;2.47;;;;;;;;;;5010519;28;20527;-55
2020/12/14 13:37:14;;;;;;;4.37;2.07;;;;;;;;;;5010523;28;20412;-56
2020/12/14 13:39:40;;;;;;;4.23;2.43;;;;;;;;;;5010514;28;20406;-55
2020/12/14 13:42:06;;;;;;;5.07;2.17;;;;;;;;;;5009761;28;20403;-55
2020/12/14 13:44:32;;;;;;;3.30;2.50;;;;;;;;;;5010359;28;20457;-55
2020/12/14 13:46:58;;;;;;;2.70;1.80;;;;;;;;;;5010375;28;20407;-54
2020/12/14 13:49:24;;;;;;;2.67;2.47;;;;;;;;;;5010151;28;20458;-54
2020/12/14 13:51:50;;;;;;;3.33;2.30;;;;;;;;;;5010403;28;20399;-54
2020/12/14 13:54:16;;;;;;;2.83;2.50;;;;;;;;;;5009278;28;20421;-54
2020/12/14 13:56:42;;;;;;;2.57;2.23;;;;;;;;;;5010468;28;20435;-55
2020/12/14 13:59:08;;;;;;;3.20;1.93;;;;;;;;;;5010056;28;20415;-53
2020/12/14 14:01:34;;;;;;;2.67;2.13;;;;;;;;;;5009593;28;20518;-55
2020/12/14 14:04:00;;;;;;;3.77;2.50;;;;;;;;;;5009640;28;20405;-54
2020/12/14 14:06:26;;;;;;;2.53;2.33;;;;;;;;;;5011094;28;20482;-54
2020/12/14 14:08:52;;;;;;;3.67;2.50;;;;;;;;;;5010268;28;20887;-54
2020/12/14 14:11:18;;;;;;;2.97;2.27;;;;;;;;;;5010128;28;20493;-54
2020/12/14 14:13:44;;;;;;;4.20;2.50;;;;;;;;;;5009533;28;20402;-54
2020/12/14 14:16:10;;;;;;;3.10;2.40;;;;;;;;;;5010124;28;20424;-53
2020/12/14 14:18:36;;;;;;;2.27;2.07;;;;;;;;;;5008924;28;20902;-54
2020/12/14 14:21:02;;;;;;;4.50;2.10;;;;;;;;;;5019775;28;20422;-54
2020/12/14 14:23:28;;;;;;;3.50;2.43;;;;;;;;;;5009603;28;20510;-54
2020/12/14 14:25:54;;;;;;;2.87;2.07;;;;;;;;;;5012441;28;20431;-54
2020/12/14 14:28:20;;;;;;;2.23;2.10;;;;;;;;;;5013476;28;20470;-54
2020/12/14 14:30:46;;;;;;;2.70;2.10;;;;;;;;;;5026799;28;20447;-54
2020/12/14 14:33:12;;;;;;;3.03;2.60;;;;;;;;;;5032205;28;20444;-54
2020/12/14 14:35:38;;;;;;;2.80;2.20;;;;;;;;;;5033040;28;20441;-54
2020/12/14 14:38:05;;;;;;;2.57;2.30;;;;;;;;;;5027237;28;20430;-54
2020/12/14 14:40:31;;;;;;;2.83;2.60;;;;;;;;;;5013305;28;20411;-52
2020/12/14 14:42:57;;;;;;;2.50;2.30;;;;;;;;;;5012478;28;20444;-54
2020/12/14 14:45:23;;;;;;;6.20;2.57;;;;;;;;;;5012142;28;20973;-55